^^
Your Local Weather - Clay, NY Station Historical Data
Daily Summary for June 15, 2017 Units:  English    Metric   Both
« Previous Day
Next Day »
Daily Weekly Monthly Yearly Custom
  High: Low: Average:
Temperature: 75.6 °F 51.9 °F 64.7 °F
Dew Point: 70.1 °F 49.1 °F 58.3 °F
Humidity: 93% 55% 81%
Wind Speed: 4.0mph 0.0mph 1mph
Wind Gust: 10.0mph - -
Wind- - ESE
Pressure: 30.00 in 29.79 in -
Precipitation: 0.31 in    
Historical Graphs
 
 
Tabular Data for June 15, 2017
Time Temperature Dew Point Pressure Wind Wind Speed Wind Gust Humidity Rainfall Rate (Hourly) solar
00:04 54.5 °F 49.4 °F 30.00 in Calm     83% 0.00 in 0 W/m2
00:10 54.4 °F 49.3 °F 29.99 in Calm     83% 0.00 in 0 W/m2
00:16 54.3 °F 49.6 °F 29.99 in Calm     84% 0.00 in 0 W/m2
00:22 54.1 °F 49.7 °F 29.98 in Calm     85% 0.00 in 0 W/m2
00:28 53.9 °F 49.5 °F 29.98 in Calm     85% 0.00 in 0 W/m2
00:34 53.6 °F 49.5 °F 29.98 in Calm   1.0 mph 86% 0.00 in 0 W/m2
00:40 53.5 °F 49.4 °F 29.98 in Calm     86% 0.00 in 0 W/m2
00:46 53.4 °F 49.6 °F 29.98 in Calm     87% 0.00 in 0 W/m2
00:52 53.3 °F 49.5 °F 29.98 in Calm     87% 0.00 in 0 W/m2
00:58 53.2 °F 49.4 °F 29.98 in Calm     87% 0.00 in 0 W/m2
01:04 53.1 °F 49.6 °F 29.98 in Calm     88% 0.00 in 0 W/m2
01:10 53.0 °F 49.5 °F 29.98 in Calm     88% 0.00 in 0 W/m2
01:16 52.8 °F 49.3 °F 29.98 in Calm     88% 0.00 in 0 W/m2
01:22 52.8 °F 49.3 °F 29.97 in Calm     88% 0.00 in 0 W/m2
01:28 52.7 °F 49.2 °F 29.97 in Calm     88% 0.00 in 0 W/m2
01:34 52.7 °F 49.5 °F 29.96 in Calm     89% 0.00 in 0 W/m2
01:40 52.7 °F 49.5 °F 29.97 in Calm     89% 0.00 in 0 W/m2
01:46 52.5 °F 49.4 °F 29.96 in Calm     89% 0.00 in 0 W/m2
01:52 52.6 °F 49.4 °F 29.97 in Calm     89% 0.00 in 0 W/m2
01:58 52.6 °F 49.4 °F 29.96 in Calm   1.0 mph 89% 0.00 in 0 W/m2
02:04 52.7 °F 49.8 °F 29.96 in Calm     90% 0.00 in 0 W/m2
02:10 52.8 °F 49.9 °F 29.96 in Calm     90% 0.00 in 0 W/m2
02:16 52.9 °F 50.0 °F 29.96 in Calm     90% 0.00 in 0 W/m2
02:22 52.9 °F 50.0 °F 29.96 in Calm     90% 0.00 in 0 W/m2
02:28 52.8 °F 49.9 °F 29.96 in Calm     90% 0.00 in 0 W/m2
02:34 52.8 °F 49.9 °F 29.95 in Calm     90% 0.00 in 0 W/m2
02:40 52.7 °F 49.8 °F 29.95 in Calm     90% 0.00 in 0 W/m2
02:46 52.8 °F 49.9 °F 29.95 in Calm   1.0 mph 90% 0.00 in 0 W/m2
02:52 52.7 °F 49.8 °F 29.95 in Calm   2.0 mph 90% 0.00 in 0 W/m2
02:58 52.7 °F 49.8 °F 29.95 in Calm   2.0 mph 90% 0.00 in 0 W/m2
03:04 52.8 °F 49.9 °F 29.95 in Calm     90% 0.00 in 0 W/m2
03:10 52.8 °F 49.9 °F 29.95 in Calm     90% 0.00 in 0 W/m2
03:16 52.7 °F 49.8 °F 29.95 in Calm     90% 0.00 in 0 W/m2
03:22 52.6 °F 49.8 °F 29.95 in Calm     90% 0.00 in 0 W/m2
03:28 52.5 °F 49.7 °F 29.95 in Calm     90% 0.00 in 0 W/m2
03:34 52.5 °F 49.7 °F 29.95 in Calm     90% 0.00 in 0 W/m2
03:40 52.3 °F 49.5 °F 29.95 in Calm     90% 0.00 in 0 W/m2
03:46 52.2 °F 49.4 °F 29.95 in Calm     90% 0.00 in 0 W/m2
03:52 52.1 °F 49.3 °F 29.94 in Calm     90% 0.00 in 0 W/m2
03:58 52.0 °F 49.2 °F 29.94 in Calm     90% 0.00 in 0 W/m2
04:04 51.9 °F 49.1 °F 29.94 in Calm     90% 0.00 in 0 W/m2
04:10 52.0 °F 49.2 °F 29.94 in Calm     90% 0.00 in 0 W/m2
04:16 52.1 °F 49.3 °F 29.94 in Calm     90% 0.00 in 0 W/m2
04:22 52.1 °F 49.3 °F 29.95 in Calm     90% 0.00 in 0 W/m2
04:28 52.1 °F 49.3 °F 29.95 in Calm     90% 0.00 in 0 W/m2
04:34 52.2 °F 49.4 °F 29.95 in Calm     90% 0.00 in 0 W/m2
04:40 52.2 °F 49.4 °F 29.94 in Calm     90% 0.00 in 0 W/m2
04:46 52.2 °F 49.7 °F 29.94 in Calm     91% 0.00 in 0 W/m2
04:52 52.4 °F 49.8 °F 29.95 in Calm   1.0 mph 91% 0.00 in 0 W/m2
04:58 52.6 °F 50.0 °F 29.94 in Calm   1.0 mph 91% 0.00 in 0 W/m2
05:04 52.7 °F 50.1 °F 29.94 in Calm     91% 0.00 in 0 W/m2
05:10 53.0 °F 50.4 °F 29.94 in Calm     91% 0.00 in 0 W/m2
05:16 53.4 °F 50.8 °F 29.94 in Calm   1.0 mph 91% 0.00 in 0 W/m2
05:22 54.0 °F 51.4 °F 29.94 in ENE 1.0 mph 1.0 mph 91% 0.00 in 5 W/m2
05:28 54.3 °F 51.4 °F 29.94 in ENE 1.0 mph 1.0 mph 90% 0.00 in 0 W/m2
05:34 54.6 °F 51.1 °F 29.94 in Calm   2.0 mph 88% 0.00 in 7 W/m2
05:40 54.8 °F 51.0 °F 29.94 in Calm     87% 0.00 in 12 W/m2
05:46 55.0 °F 50.9 °F 29.94 in Calm   1.0 mph 86% 0.00 in 18 W/m2
05:52 55.2 °F 51.1 °F 29.94 in Calm     86% 0.00 in 23 W/m2
05:58 55.4 °F 51.0 °F 29.94 in Calm     85% 0.00 in 26 W/m2
06:04 55.6 °F 51.2 °F 29.94 in Calm     85% 0.00 in 28 W/m2
06:10 55.8 °F 51.0 °F 29.94 in Calm     84% 0.00 in 32 W/m2
06:16 56.0 °F 51.2 °F 29.93 in Calm     84% 0.00 in 39 W/m2
06:22 56.2 °F 51.1 °F 29.93 in Calm     83% 0.00 in 62 W/m2
06:28 56.7 °F 51.6 °F 29.93 in Calm     83% 0.00 in 104 W/m2
06:34 57.2 °F 51.8 °F 29.93 in Calm     82% 0.00 in 113 W/m2
06:40 57.8 °F 51.7 °F 29.94 in Calm     80% 0.00 in 60 W/m2
06:46 58.1 °F 51.6 °F 29.93 in Calm   1.0 mph 79% 0.00 in 60 W/m2
06:52 58.2 °F 51.7 °F 29.93 in Calm   1.0 mph 79% 0.00 in 90 W/m2
06:58 58.4 °F 51.6 °F 29.93 in NNE 1.0 mph 1.0 mph 78% 0.00 in 100 W/m2
07:04 58.9 °F 51.7 °F 29.93 in SW 1.0 mph 2.0 mph 77% 0.00 in 135 W/m2
07:10 59.6 °F 51.7 °F 29.93 in ENE 1.0 mph 2.0 mph 75% 0.00 in 232 W/m2
07:16 60.3 °F 51.6 °F 29.93 in ENE 2.0 mph 7.0 mph 73% 0.00 in 246 W/m2
07:22 60.5 °F 51.0 °F 29.93 in ENE 2.0 mph 3.0 mph 71% 0.00 in 151 W/m2
07:28 60.8 °F 51.3 °F 29.93 in ENE 2.0 mph 3.0 mph 71% 0.00 in 190 W/m2
07:34 61.2 °F 50.6 °F 29.93 in ENE 1.0 mph 10.0 mph 68% 0.00 in 251 W/m2
07:42 61.7 °F 50.6 °F 29.93 in SE 3.0 mph 4.0 mph 67% 0.00 in 255 W/m2
07:48 62.3 °F 51.2 °F 29.93 in ENE 2.0 mph 4.0 mph 67% 0.00 in 287 W/m2
07:54 62.8 °F 51.7 °F 29.93 in ENE 1.0 mph 1.0 mph 67% 0.00 in 387 W/m2
08:00 62.8 °F 50.0 °F 29.93 in NE 2.0 mph 2.0 mph 63% 0.00 in 290 W/m2
08:06 62.7 °F 50.3 °F 29.93 in ESE 2.0 mph 3.0 mph 64% 0.00 in 178 W/m2
08:12 62.7 °F 49.9 °F 29.93 in ENE 2.0 mph 2.0 mph 63% 0.00 in 193 W/m2
08:18 62.7 °F 50.3 °F 29.93 in East 1.0 mph 2.0 mph 64% 0.00 in 160 W/m2
08:24 63.3 °F 51.3 °F 29.93 in Calm   1.0 mph 65% 0.00 in 287 W/m2
08:30 64.1 °F 52.5 °F 29.92 in ENE 1.0 mph 4.0 mph 66% 0.00 in 443 W/m2
08:36 64.4 °F 51.1 °F 29.93 in NE 2.0 mph 4.0 mph 62% 0.00 in 450 W/m2
08:42 65.1 °F 51.8 °F 29.92 in East 2.0 mph 3.0 mph 62% 0.00 in 487 W/m2
08:48 65.7 °F 51.9 °F 29.92 in SE 2.0 mph 5.0 mph 61% 0.00 in 473 W/m2
08:54 65.9 °F 51.6 °F 29.92 in SE 3.0 mph 3.0 mph 60% 0.00 in 538 W/m2
09:00 66.4 °F 51.6 °F 29.92 in ENE 2.0 mph 4.0 mph 59% 0.00 in 322 W/m2
09:06 66.8 °F 52.5 °F 29.91 in ENE 3.0 mph 4.0 mph 60% 0.00 in 534 W/m2
09:12 67.2 °F 52.4 °F 29.92 in SSE 3.0 mph 3.0 mph 59% 0.00 in 541 W/m2
09:18 67.9 °F 52.6 °F 29.92 in NE 2.0 mph 3.0 mph 58% 0.00 in 584 W/m2
09:24 68.3 °F 52.5 °F 29.92 in ENE 2.0 mph 2.0 mph 57% 0.00 in 747 W/m2
09:30 68.2 °F 52.9 °F 29.92 in East 3.0 mph 3.0 mph 58% 0.00 in 332 W/m2
09:36 67.6 °F 52.3 °F 29.92 in NNE 3.0 mph 6.0 mph 58% 0.00 in 512 W/m2
09:42 68.1 °F 53.2 °F 29.92 in East 3.0 mph 7.0 mph 59% 0.00 in 383 W/m2
09:48 68.4 °F 52.6 °F 29.91 in SSE 2.0 mph 7.0 mph 57% 0.00 in 434 W/m2
09:54 68.7 °F 53.3 °F 29.91 in NE 2.0 mph 3.0 mph 58% 0.00 in 594 W/m2
10:00 69.1 °F 53.7 °F 29.91 in SE 2.0 mph 2.0 mph 58% 0.00 in 710 W/m2
10:06 69.4 °F 54.0 °F 29.91 in SSE 2.0 mph 3.0 mph 58% 0.00 in 373 W/m2
10:12 68.6 °F 52.8 °F 29.91 in East 2.0 mph 10.0 mph 57% 0.00 in 381 W/m2
10:18 68.3 °F 52.9 °F 29.91 in South 3.0 mph 10.0 mph 58% 0.00 in 378 W/m2
10:24 68.3 °F 54.3 °F 29.91 in SE 3.0 mph 4.0 mph 61% 0.00 in 485 W/m2
10:54 70.2 °F 54.2 °F 29.90 in NE 3.0 mph 3.0 mph 57% 0.00 in 830 W/m2
10:59 70.5 °F 55.9 °F 29.89 in SE 3.0 mph 3.0 mph 60% 0.00 in 856 W/m2
11:05 70.6 °F 55.6 °F 29.89 in East 4.0 mph 7.0 mph 59% 0.00 in 450 W/m2
11:12 70.5 °F 54.0 °F 29.89 in ENE 3.0 mph 7.0 mph 56% 0.00 in 786 W/m2
11:18 71.6 °F 57.0 °F 29.89 in East 3.0 mph 7.0 mph 60% 0.00 in 940 W/m2
11:23 72.0 °F 54.9 °F 29.89 in ENE 4.0 mph 6.0 mph 55% 0.00 in 504 W/m2
11:29 71.8 °F 57.2 °F 29.88 in North 4.0 mph 4.0 mph 60% 0.00 in 601 W/m2
11:36 72.1 °F 56.5 °F 29.88 in NE 3.0 mph 4.0 mph 58% 0.00 in 524 W/m2
11:42 73.5 °F 58.3 °F 29.88 in ENE 3.0 mph 3.0 mph 59% 0.00 in 758 W/m2
11:48 74.2 °F 58.9 °F 29.88 in ENE 2.0 mph 3.0 mph 59% 0.00 in 598 W/m2
11:53 75.0 °F 57.7 °F 29.88 in NE 2.0 mph 3.0 mph 55% 0.00 in 789 W/m2
12:00 74.9 °F 59.1 °F 29.87 in NE 2.0 mph 3.0 mph 58% 0.00 in 603 W/m2
12:05 75.1 °F 59.3 °F 29.87 in ENE 2.0 mph 7.0 mph 58% 0.00 in 446 W/m2
12:12 74.6 °F 59.3 °F 29.87 in ENE 2.0 mph 3.0 mph 59% 0.00 in 438 W/m2
12:18 75.1 °F 59.8 °F 29.87 in NNE 2.0 mph 3.0 mph 59% 0.00 in 443 W/m2
12:23 75.6 °F 60.3 °F 29.87 in NNE 2.0 mph 4.0 mph 59% 0.00 in 364 W/m2
12:30 75.0 °F 60.2 °F 29.87 in ENE 3.0 mph 3.0 mph 60% 0.00 in 417 W/m2
12:35 75.0 °F 60.2 °F 29.86 in North 2.0 mph 4.0 mph 60% 0.00 in 411 W/m2
12:42 74.6 °F 60.3 °F 29.85 in NE 3.0 mph 5.0 mph 61% 0.00 in 385 W/m2
12:48 75.0 °F 60.6 °F 29.85 in NNE 3.0 mph 5.0 mph 61% 0.00 in 334 W/m2
12:53 74.9 °F 60.5 °F 29.86 in NE 3.0 mph 5.0 mph 61% 0.00 in 195 W/m2
13:00 74.4 °F 60.5 °F 29.86 in North 2.0 mph 2.0 mph 62% 0.00 in 162 W/m2
13:06 73.7 °F 60.8 °F 29.86 in ENE 1.0 mph 2.0 mph 64% 0.00 in 149 W/m2
13:12 73.4 °F 61.3 °F 29.86 in NNW 2.0 mph 3.0 mph 66% 0.00 in 160 W/m2
13:18 73.3 °F 60.8 °F 29.86 in NNE 3.0 mph 3.0 mph 65% 0.00 in 160 W/m2
13:23 73.2 °F 60.7 °F 29.86 in NNE 2.0 mph 4.0 mph 65% 0.00 in 125 W/m2
13:29 73.1 °F 61.1 °F 29.87 in NE 2.0 mph 2.0 mph 66% 0.00 in 44 W/m2
13:42 72.2 °F 61.9 °F 29.87 in Calm     70% 0.00 in 51 W/m2
13:48 71.9 °F 63.2 °F 29.87 in Calm   1.0 mph 74% 0.00 in 67 W/m2
13:53 71.6 °F 63.6 °F 29.87 in Calm   1.0 mph 76% 0.00 in 102 W/m2
13:59 71.1 °F 63.9 °F 29.86 in Calm   1.0 mph 78% 0.00 in 121 W/m2
14:06 70.5 °F 63.7 °F 29.86 in North 1.0 mph 2.0 mph 79% 0.00 in 116 W/m2
14:12 70.0 °F 63.9 °F 29.86 in North 1.0 mph 1.0 mph 81% 0.05 in 86 W/m2
14:18 69.6 °F 63.9 °F 29.87 in Calm   1.0 mph 82% 0.05 in 51 W/m2
14:23 69.4 °F 64.0 °F 29.86 in Calm     83% 0.04 in 53 W/m2
14:29 69.2 °F 64.5 °F 29.86 in Calm   3.0 mph 85% 0.12 in 51 W/m2
14:35 68.8 °F 64.8 °F 29.86 in NE 1.0 mph 3.0 mph 87% 0.13 in 58 W/m2
14:42 68.9 °F 65.2 °F 29.86 in Calm   1.0 mph 88% 0.13 in 83 W/m2
14:48 69.0 °F 65.3 °F 29.86 in Calm   1.0 mph 88% 0.18 in 63 W/m2
14:54 69.1 °F 65.7 °F 29.86 in Calm   1.0 mph 89% 0.18 in 158 W/m2
14:59 69.3 °F 66.2 °F 29.85 in NE 1.0 mph 2.0 mph 90% 0.08 in 204 W/m2
15:06 69.6 °F 66.5 °F 29.85 in NE 1.0 mph 2.0 mph 90% 0.04 in 211 W/m2
15:12 69.8 °F 66.7 °F 29.84 in ENE 1.0 mph 1.0 mph 90% 0.00 in 209 W/m2
15:18 70.0 °F 66.9 °F 29.84 in ENE 1.0 mph 2.0 mph 90% 0.00 in 195 W/m2
15:24 70.4 °F 67.6 °F 29.84 in ENE 1.0 mph 3.0 mph 91% 0.00 in 209 W/m2
15:29 71.0 °F 68.2 °F 29.84 in SE 1.0 mph 3.0 mph 91% 0.00 in 193 W/m2
15:35 71.4 °F 68.6 °F 29.84 in SE 1.0 mph 3.0 mph 91% 0.00 in 192 W/m2
15:42 71.7 °F 68.9 °F 29.84 in South 1.0 mph 5.0 mph 91% 0.00 in 195 W/m2
15:48 71.4 °F 68.3 °F 29.84 in SSW 3.0 mph 5.0 mph 90% 0.00 in 123 W/m2
15:54 71.1 °F 67.7 °F 29.84 in SW 2.0 mph 3.0 mph 89% 0.00 in 77 W/m2
15:59 71.0 °F 67.6 °F 29.84 in SSE 1.0 mph 3.0 mph 89% 0.00 in 84 W/m2
16:05 70.9 °F 67.5 °F 29.83 in SE 1.0 mph 4.0 mph 89% 0.00 in 123 W/m2
16:12 70.9 °F 67.5 °F 29.83 in SSE 1.0 mph 2.0 mph 89% 0.00 in 144 W/m2
16:18 71.2 °F 67.8 °F 29.82 in SSE 1.0 mph 2.0 mph 89% 0.00 in 167 W/m2
16:25 71.6 °F 68.2 °F 29.82 in Calm   3.0 mph 89% 0.00 in 322 W/m2
16:32 72.2 °F 69.1 °F 29.82 in East 1.0 mph 3.0 mph 90% 0.00 in 292 W/m2
16:38 72.5 °F 69.1 °F 29.82 in NNE 1.0 mph 5.0 mph 89% 0.00 in 309 W/m2
16:46 73.0 °F 69.6 °F 29.81 in East 1.0 mph 2.0 mph 89% 0.00 in 381 W/m2
16:52 73.5 °F 70.1 °F 29.81 in ENE 1.0 mph 3.0 mph 89% 0.00 in 339 W/m2
16:58 73.6 °F 69.5 °F 29.81 in NE 2.0 mph 5.0 mph 87% 0.00 in 234 W/m2
17:04 73.1 °F 68.7 °F 29.81 in SE 3.0 mph 3.0 mph 86% 0.00 in 244 W/m2
17:10 73.3 °F 68.9 °F 29.81 in South 2.0 mph 2.0 mph 86% 0.00 in 258 W/m2
17:15 73.3 °F 68.5 °F 29.81 in ESE 2.0 mph 3.0 mph 85% 0.00 in 206 W/m2
17:22 73.2 °F 68.4 °F 29.81 in East 2.0 mph 2.0 mph 85% 0.00 in 162 W/m2
17:28 73.1 °F 68.0 °F 29.81 in ENE 1.0 mph 3.0 mph 84% 0.00 in 188 W/m2
17:34 73.5 °F 68.7 °F 29.81 in SE 2.0 mph 3.0 mph 85% 0.00 in 283 W/m2
17:40 74.0 °F 68.2 °F 29.79 in East 3.0 mph 3.0 mph 82% 0.00 in 174 W/m2
17:45 73.9 °F 68.1 °F 29.80 in East 3.0 mph 4.0 mph 82% 0.00 in 155 W/m2
17:52 73.9 °F 68.1 °F 29.79 in SSE 3.0 mph 3.0 mph 82% 0.00 in 118 W/m2
17:58 73.6 °F 67.8 °F 29.79 in ESE 2.0 mph 3.0 mph 82% 0.00 in 100 W/m2
18:03 73.1 °F 67.3 °F 29.79 in SSE 1.0 mph 4.0 mph 82% 0.00 in 97 W/m2
18:10 72.9 °F 67.1 °F 29.79 in NNW 2.0 mph 2.0 mph 82% 0.00 in 98 W/m2
18:15 72.7 °F 67.2 °F 29.79 in ENE 1.0 mph 3.0 mph 83% 0.00 in 93 W/m2
18:22 72.7 °F 67.2 °F 29.79 in East 1.0 mph 2.0 mph 83% 0.00 in 88 W/m2
18:28 72.6 °F 67.1 °F 29.79 in East 1.0 mph 2.0 mph 83% 0.00 in 86 W/m2
18:34 72.6 °F 67.1 °F 29.79 in South 1.0 mph 1.0 mph 83% 0.00 in 70 W/m2
18:39 72.6 °F 67.1 °F 29.80 in Calm     83% 0.00 in 56 W/m2
18:46 72.6 °F 67.1 °F 29.80 in Calm     83% 0.00 in 51 W/m2
18:52 72.5 °F 67.4 °F 29.79 in Calm     84% 0.00 in 39 W/m2
18:58 72.4 °F 67.3 °F 29.79 in Calm   1.0 mph 84% 0.00 in 23 W/m2
19:04 72.3 °F 67.2 °F 29.79 in Calm     84% 0.00 in 12 W/m2
19:09 72.1 °F 67.0 °F 29.80 in Calm     84% 0.00 in 9 W/m2
19:16 71.7 °F 67.6 °F 29.80 in Calm     87% 0.12 in 7 W/m2
19:22 71.0 °F 67.3 °F 29.80 in Calm     88% 0.18 in 7 W/m2
19:28 70.4 °F 66.7 °F 29.80 in Calm     88% 0.18 in 5 W/m2
19:33 70.1 °F 66.7 °F 29.80 in Calm     89% 0.17 in 7 W/m2
19:39 69.6 °F 66.2 °F 29.80 in Calm     89% 0.14 in 9 W/m2
19:46 69.3 °F 66.2 °F 29.80 in Calm   1.0 mph 90% 0.13 in 11 W/m2
19:52 68.9 °F 65.5 °F 29.80 in Calm     89% 0.11 in 12 W/m2
19:58 68.8 °F 65.7 °F 29.80 in Calm     90% 0.11 in 9 W/m2
20:03 68.6 °F 65.5 °F 29.80 in Calm   1.0 mph 90% 0.06 in 7 W/m2
20:09 68.6 °F 65.9 °F 29.80 in Calm     91% 0.04 in 7 W/m2
20:16 68.6 °F 65.9 °F 29.80 in Calm     91% 0.00 in 7 W/m2
20:22 68.4 °F 65.7 °F 29.79 in Calm     91% 0.00 in 5 W/m2
20:28 68.2 °F 65.5 °F 29.79 in Calm     91% 0.00 in 0 W/m2
20:35 68.0 °F 65.3 °F 29.79 in Calm     91% 0.00 in 0 W/m2
20:42 67.9 °F 65.2 °F 29.80 in Calm     91% 0.00 in 0 W/m2
20:45 67.8 °F 65.1 °F 29.80 in Calm     91% 0.00 in 0 W/m2
20:52 67.7 °F 65.0 °F 29.80 in Calm     91% 0.00 in 0 W/m2
20:58 67.7 °F 64.7 °F 29.80 in Calm     90% 0.00 in 0 W/m2
21:03 67.7 °F 64.7 °F 29.80 in Calm     90% 0.04 in 0 W/m2
21:09 67.6 °F 64.9 °F 29.80 in Calm     91% 0.04 in 0 W/m2
21:16 67.4 °F 64.7 °F 29.80 in Calm     91% 0.04 in 0 W/m2
21:22 67.3 °F 64.6 °F 29.81 in Calm   1.0 mph 91% 0.04 in 0 W/m2
21:28 67.1 °F 64.4 °F 29.81 in Calm   1.0 mph 91% 0.09 in 0 W/m2
21:33 67.1 °F 64.7 °F 29.81 in Calm     92% 0.08 in 0 W/m2
21:40 67.0 °F 64.6 °F 29.81 in Calm     92% 0.04 in 0 W/m2
21:45 66.9 °F 64.5 °F 29.81 in Calm     92% 0.04 in 0 W/m2
21:52 66.9 °F 64.5 °F 29.81 in Calm     92% 0.04 in 0 W/m2
21:58 66.8 °F 64.4 °F 29.81 in Calm     92% 0.04 in 0 W/m2
22:04 66.7 °F 64.3 °F 29.81 in Calm     92% 0.00 in 0 W/m2
22:09 66.7 °F 64.3 °F 29.81 in Calm     92% 0.00 in 0 W/m2
22:16 66.6 °F 64.2 °F 29.81 in Calm     92% 0.00 in 0 W/m2
22:22 66.5 °F 64.4 °F 29.81 in Calm     93% 0.00 in 0 W/m2
22:28 66.5 °F 64.4 °F 29.81 in Calm     93% 0.00 in 0 W/m2
22:33 66.4 °F 64.3 °F 29.81 in Calm     93% 0.00 in 0 W/m2
22:39 66.4 °F 64.3 °F 29.81 in Calm     93% 0.00 in 0 W/m2
22:46 66.3 °F 64.2 °F 29.81 in Calm     93% 0.00 in 0 W/m2
22:52 66.3 °F 64.2 °F 29.81 in Calm     93% 0.00 in 0 W/m2
22:58 66.3 °F 64.2 °F 29.81 in Calm     93% 0.00 in 0 W/m2
23:03 66.3 °F 64.2 °F 29.81 in SE 1.0 mph 2.0 mph 93% 0.00 in 0 W/m2
23:09 66.4 °F 64.3 °F 29.80 in South 2.0 mph 2.0 mph 93% 0.00 in 0 W/m2
23:15 66.4 °F 64.3 °F 29.80 in SE 3.0 mph 6.0 mph 93% 0.00 in 0 W/m2
23:22 66.7 °F 64.3 °F 29.80 in SE 3.0 mph 3.0 mph 92% 0.00 in 0 W/m2
23:28 66.8 °F 63.8 °F 29.80 in South 3.0 mph 6.0 mph 90% 0.00 in 0 W/m2
23:34 67.1 °F 63.4 °F 29.80 in SE 4.0 mph 4.0 mph 88% 0.00 in 0 W/m2
23:39 67.2 °F 63.2 °F 29.80 in SSE 3.0 mph 3.0 mph 87% 0.00 in 0 W/m2
23:45 67.2 °F 62.9 °F 29.80 in South 4.0 mph 4.0 mph 86% 0.00 in 0 W/m2
23:52 67.0 °F 62.7 °F 29.79 in SE 4.0 mph 6.0 mph 86% 0.00 in 0 W/m2
23:58 67.0 °F 62.3 °F 29.79 in SE 4.0 mph 8.0 mph 85% 0.00 in 0 W/m2
Country Meadow, Clay, NY, USA
Compliments of Weather Underground - 2 mb